Time;durP1;ratioP1;P1;durP2;ratioP2;P2;SDS_P1;SDS_P2;PMS_P1;PMS_P2;Temp;Humidity;BMP_temperature;BMP_pressure;BME280_temperature;BME280_humidity;BME280_pressure;Samples;Min_cycle;Max_cycle;Signal;HPM_P1;HPM_P2
2022/08/08 00:00:11;;;;;;;0.80;0.70;;;;;;;;;;5071203;28;20437;-75
2022/08/08 00:02:47;;;;;;;0.70;0.70;;;;;;;;;;5071179;28;20429;-75
2022/08/08 00:05:25;;;;;;;1.13;0.47;;;;;;;;;;5069546;28;20531;-75
2022/08/08 00:08:03;;;;;;;0.50;0.50;;;;;;;;;;5051912;28;20441;-75
2022/08/08 00:10:32;;;;;;;0.73;0.73;;;;;;;;;;5070169;28;20433;-75
2022/08/08 00:13:01;;;;;;;0.60;0.60;;;;;;;;;;5072463;28;20413;-75
2022/08/08 00:15:28;;;;;;;0.60;0.60;;;;;;;;;;5056982;28;20504;-75
2022/08/08 00:18:07;;;;;;;0.70;0.70;;;;;;;;;;5052945;28;20457;-75
2022/08/08 00:20:54;;;;;;;0.50;0.50;;;;;;;;;;5036086;28;20423;-74
2022/08/08 00:23:20;;;;;;;0.67;0.67;;;;;;;;;;5052297;28;20422;-75
2022/08/08 00:25:49;;;;;;;1.80;0.63;;;;;;;;;;5052896;28;20465;-75
2022/08/08 00:28:18;;;;;;;0.80;0.80;;;;;;;;;;5051950;28;20228;-75
2022/08/08 00:30:47;;;;;;;0.83;0.83;;;;;;;;;;5069790;28;20437;-74
2022/08/08 00:33:16;;;;;;;0.50;0.50;;;;;;;;;;5069064;28;20431;-75
2022/08/08 00:36:01;;;;;;;1.03;0.70;;;;;;;;;;5069305;28;20575;-75
2022/08/08 00:38:46;;;;;;;2.37;0.90;;;;;;;;;;5069733;28;20953;-74
2022/08/08 00:41:23;;;;;;;1.73;0.70;;;;;;;;;;5052659;28;20410;-74
2022/08/08 00:44:07;;;;;;;0.73;0.67;;;;;;;;;;5053724;28;20980;-74
2022/08/08 00:46:39;;;;;;;4.83;1.10;;;;;;;;;;5051360;28;20835;-75
2022/08/08 00:49:35;;;;;;;6.23;1.13;;;;;;;;;;5053876;28;20808;-75
2022/08/08 00:52:23;;;;;;;1.10;1.10;;;;;;;;;;5032456;28;20915;-75
2022/08/08 00:55:03;;;;;;;4.40;0.90;;;;;;;;;;5057655;28;20469;-75
2022/08/08 00:57:47;;;;;;;3.70;1.00;;;;;;;;;;5070182;28;21000;-75
2022/08/08 01:00:16;;;;;;;0.60;0.60;;;;;;;;;;5071331;28;20452;-76
2022/08/08 01:02:54;;;;;;;0.90;0.90;;;;;;;;;;5037631;28;20430;-75
2022/08/08 01:05:39;;;;;;;0.60;0.60;;;;;;;;;;5052531;28;20989;-75
2022/08/08 01:08:24;;;;;;;1.00;1.00;;;;;;;;;;5051757;28;20801;-75
2022/08/08 01:11:01;;;;;;;0.63;0.63;;;;;;;;;;5045494;28;20480;-75
2022/08/08 01:13:39;;;;;;;2.83;1.23;;;;;;;;;;5053174;28;20441;-75
2022/08/08 01:16:14;;;;;;;0.57;0.57;;;;;;;;;;5052415;28;20425;-75
2022/08/08 01:18:49;;;;;;;1.43;0.70;;;;;;;;;;5050969;28;20846;-75
2022/08/08 01:21:19;;;;;;;0.87;0.87;;;;;;;;;;5052230;28;20462;-74
2022/08/08 01:24:03;;;;;;;0.70;0.70;;;;;;;;;;5054509;28;20526;-75
2022/08/08 01:26:50;;;;;;;4.47;0.73;;;;;;;;;;5071984;28;20496;-75
2022/08/08 01:29:31;;;;;;;0.60;0.60;;;;;;;;;;5072056;28;20442;-75
2022/08/08 01:32:16;;;;;;;1.40;0.97;;;;;;;;;;5054786;28;20990;-74
2022/08/08 01:35:05;;;;;;;3.70;0.90;;;;;;;;;;5053305;28;20449;-75
2022/08/08 01:37:54;;;;;;;0.60;0.60;;;;;;;;;;5049798;28;20442;-75
2022/08/08 01:40:34;;;;;;;0.60;0.60;;;;;;;;;;5063602;28;20445;-75
2022/08/08 01:43:06;;;;;;;0.50;0.50;;;;;;;;;;5075267;28;20508;-75
2022/08/08 01:45:41;;;;;;;0.80;0.80;;;;;;;;;;5075681;28;20409;-75
2022/08/08 01:48:25;;;;;;;0.97;0.87;;;;;;;;;;5072821;28;20428;-75
2022/08/08 01:51:10;;;;;;;1.27;0.60;;;;;;;;;;5054550;28;20521;-74
2022/08/08 01:53:54;;;;;;;1.03;0.83;;;;;;;;;;5054773;28;21028;-76
2022/08/08 01:56:20;;;;;;;0.80;0.80;;;;;;;;;;5056667;28;20446;-75
2022/08/08 01:59:12;;;;;;;0.77;0.77;;;;;;;;;;5064320;28;20538;-75
2022/08/08 02:01:47;;;;;;;0.60;0.60;;;;;;;;;;5065524;28;20451;-75
2022/08/08 02:04:20;;;;;;;5.60;0.70;;;;;;;;;;5045511;28;20428;-75
2022/08/08 02:06:52;;;;;;;0.93;0.93;;;;;;;;;;5070902;28;20427;-75
2022/08/08 02:09:42;;;;;;;0.90;0.90;;;;;;;;;;5048762;28;20438;-75
2022/08/08 02:12:13;;;;;;;0.80;0.80;;;;;;;;;;5036674;28;20484;-75
2022/08/08 02:14:40;;;;;;;0.90;0.90;;;;;;;;;;5056222;28;20473;-75
2022/08/08 02:17:25;;;;;;;0.70;0.70;;;;;;;;;;5055036;28;20430;-75
2022/08/08 02:20:02;;;;;;;0.50;0.50;;;;;;;;;;5055023;28;20445;-75
2022/08/08 02:22:46;;;;;;;1.23;0.97;;;;;;;;;;5054504;28;20414;-75
2022/08/08 02:25:35;;;;;;;3.40;0.90;;;;;;;;;;5071181;28;20436;-75
2022/08/08 02:28:08;;;;;;;2.57;1.03;;;;;;;;;;5053770;28;20440;-75
2022/08/08 02:30:42;;;;;;;0.60;0.60;;;;;;;;;;5038645;28;20431;-75
2022/08/08 02:33:11;;;;;;;0.70;0.70;;;;;;;;;;5054580;28;20958;-75
2022/08/08 02:35:53;;;;;;;0.60;0.60;;;;;;;;;;5055778;28;20434;-74
2022/08/08 02:38:25;;;;;;;0.60;0.60;;;;;;;;;;5054418;28;20486;-74
2022/08/08 02:41:10;;;;;;;1.53;1.07;;;;;;;;;;5054786;28;20475;-75
2022/08/08 02:43:45;;;;;;;0.70;0.70;;;;;;;;;;5056978;28;20543;-74
2022/08/08 02:46:11;;;;;;;5.93;1.10;;;;;;;;;;5055721;28;20434;-74
2022/08/08 02:48:49;;;;;;;0.80;0.80;;;;;;;;;;5054625;28;20433;-75
2022/08/08 02:51:34;;;;;;;4.33;0.90;;;;;;;;;;5053438;28;20414;-75
2022/08/08 02:54:26;;;;;;;0.60;0.60;;;;;;;;;;5067209;28;20473;-75
2022/08/08 02:56:52;;;;;;;2.10;0.80;;;;;;;;;;5055582;28;20544;-75
2022/08/08 02:59:36;;;;;;;2.93;0.70;;;;;;;;;;5074075;28;20618;-74
2022/08/08 03:02:28;;;;;;;3.70;0.90;;;;;;;;;;5072505;28;20655;-75
2022/08/08 03:05:08;;;;;;;2.30;0.90;;;;;;;;;;5070754;28;20442;-75
2022/08/08 03:07:34;;;;;;;0.80;0.80;;;;;;;;;;5054951;28;20483;-75
2022/08/08 03:10:06;;;;;;;0.50;0.50;;;;;;;;;;5054134;28;20529;-75
2022/08/08 03:12:51;;;;;;;0.63;0.60;;;;;;;;;;5053758;28;20802;-75
2022/08/08 03:15:35;;;;;;;0.83;0.63;;;;;;;;;;5054072;28;20833;-75
2022/08/08 03:18:12;;;;;;;2.90;0.70;;;;;;;;;;5054890;28;20820;-75
2022/08/08 03:20:49;;;;;;;1.13;1.03;;;;;;;;;;5058848;28;20502;-75
2022/08/08 03:23:16;;;;;;;0.60;0.60;;;;;;;;;;5072955;28;20453;-75
2022/08/08 03:25:42;;;;;;;0.90;0.90;;;;;;;;;;5073933;28;20440;-75
2022/08/08 03:28:19;;;;;;;1.50;0.70;;;;;;;;;;5072108;28;20483;-75
2022/08/08 03:30:45;;;;;;;1.80;0.80;;;;;;;;;;5041650;28;20434;-74
2022/08/08 03:33:18;;;;;;;3.27;1.00;;;;;;;;;;5053112;28;20419;-75
2022/08/08 03:35:45;;;;;;;0.73;0.73;;;;;;;;;;5054938;28;20494;-75
2022/08/08 03:38:11;;;;;;;1.00;1.00;;;;;;;;;;5051528;28;20489;-75
2022/08/08 03:40:37;;;;;;;1.00;1.00;;;;;;;;;;5044189;28;20442;-75
2022/08/08 03:43:06;;;;;;;0.90;0.70;;;;;;;;;;5052210;28;20431;-76
2022/08/08 03:45:32;;;;;;;3.30;1.30;;;;;;;;;;5057542;28;20441;-75
2022/08/08 03:48:02;;;;;;;0.83;0.83;;;;;;;;;;5071045;28;20521;-75
2022/08/08 03:50:28;;;;;;;1.37;0.80;;;;;;;;;;5069923;28;20482;-75
2022/08/08 03:52:55;;;;;;;1.17;1.03;;;;;;;;;;5070556;28;20943;-75
2022/08/08 03:55:21;;;;;;;0.70;0.70;;;;;;;;;;5071246;28;20477;-75
2022/08/08 03:57:48;;;;;;;0.83;0.83;;;;;;;;;;5058837;28;20504;-75
2022/08/08 04:00:16;;;;;;;11.60;0.80;;;;;;;;;;5053729;28;20512;-75
2022/08/08 04:02:43;;;;;;;0.90;0.90;;;;;;;;;;5051030;28;20422;-75
2022/08/08 04:05:09;;;;;;;0.80;0.80;;;;;;;;;;5052775;28;20442;-75
2022/08/08 04:07:37;;;;;;;0.77;0.77;;;;;;;;;;5061957;28;20469;-75
2022/08/08 04:10:03;;;;;;;3.70;1.43;;;;;;;;;;5070438;28;20433;-75
2022/08/08 04:12:29;;;;;;;7.90;1.80;;;;;;;;;;5070511;28;20429;-75
2022/08/08 04:14:55;;;;;;;1.43;0.90;;;;;;;;;;5070196;28;20434;-75
2022/08/08 04:17:21;;;;;;;8.03;1.00;;;;;;;;;;5055408;28;20423;-75
2022/08/08 04:19:47;;;;;;;0.93;0.93;;;;;;;;;;5065711;28;20821;-75
2022/08/08 04:22:13;;;;;;;1.10;1.10;;;;;;;;;;5055948;28;20422;-75
2022/08/08 04:24:39;;;;;;;2.50;1.00;;;;;;;;;;5051040;28;20487;-75
2022/08/08 04:27:05;;;;;;;0.80;0.80;;;;;;;;;;5052751;28;20981;-75
2022/08/08 04:29:31;;;;;;;0.97;0.87;;;;;;;;;;5052169;28;20422;-75
2022/08/08 04:31:58;;;;;;;3.50;0.90;;;;;;;;;;5050775;28;20969;-75
2022/08/08 04:34:24;;;;;;;1.40;1.30;;;;;;;;;;5052270;28;20842;-75
2022/08/08 04:36:49;;;;;;;1.30;1.30;;;;;;;;;;5052275;28;20800;-75
2022/08/08 04:39:15;;;;;;;0.83;0.83;;;;;;;;;;5053430;28;20993;-75
2022/08/08 04:41:41;;;;;;;0.70;0.70;;;;;;;;;;5069010;28;20417;-75
2022/08/08 04:44:08;;;;;;;8.00;0.97;;;;;;;;;;5070899;28;20480;-76
2022/08/08 04:46:34;;;;;;;0.90;0.90;;;;;;;;;;5070141;28;20513;-68
2022/08/08 04:49:00;;;;;;;1.50;0.93;;;;;;;;;;5072255;28;20464;-65
2022/08/08 04:51:25;;;;;;;1.43;0.90;;;;;;;;;;5069127;28;20444;-66
2022/08/08 04:53:51;;;;;;;0.70;0.70;;;;;;;;;;5060434;28;20524;-66
2022/08/08 04:56:18;;;;;;;1.03;1.03;;;;;;;;;;5053072;28;20427;-66
2022/08/08 04:58:44;;;;;;;2.30;0.90;;;;;;;;;;5053496;28;20473;-66
2022/08/08 05:01:10;;;;;;;1.23;0.87;;;;;;;;;;5050970;28;20433;-66
2022/08/08 05:03:36;;;;;;;1.03;0.87;;;;;;;;;;5051865;28;20476;-66
2022/08/08 05:06:02;;;;;;;0.77;0.77;;;;;;;;;;5051854;28;20430;-65
2022/08/08 05:08:29;;;;;;;0.80;0.80;;;;;;;;;;5053900;28;20915;-66
2022/08/08 05:10:55;;;;;;;0.70;0.70;;;;;;;;;;5055243;28;20999;-65
2022/08/08 05:13:21;;;;;;;0.87;0.87;;;;;;;;;;5071779;28;20437;-65
2022/08/08 05:15:47;;;;;;;2.73;0.90;;;;;;;;;;5074962;28;20429;-66
2022/08/08 05:18:13;;;;;;;2.57;1.07;;;;;;;;;;5074050;28;21002;-66
2022/08/08 05:20:39;;;;;;;0.97;0.97;;;;;;;;;;5071398;28;20422;-80
2022/08/08 05:23:05;;;;;;;0.80;0.80;;;;;;;;;;5054283;28;20430;-79
2022/08/08 05:25:31;;;;;;;15.30;1.27;;;;;;;;;;5056222;28;20882;-80
2022/08/08 05:27:57;;;;;;;1.03;1.03;;;;;;;;;;5057046;28;21167;-81
2022/08/08 05:30:22;;;;;;;0.80;0.80;;;;;;;;;;5055998;28;20476;-79
2022/08/08 05:32:49;;;;;;;0.80;0.80;;;;;;;;;;5055608;28;20430;-80
2022/08/08 05:35:15;;;;;;;8.37;1.33;;;;;;;;;;5063106;28;20808;-79
2022/08/08 05:37:46;;;;;;;3.70;1.00;;;;;;;;;;5073876;28;20426;-80
2022/08/08 05:40:12;;;;;;;11.10;1.70;;;;;;;;;;5063783;28;20460;-80
2022/08/08 05:42:42;;;;;;;0.70;0.70;;;;;;;;;;5065457;28;20421;-77
2022/08/08 05:45:09;;;;;;;8.43;1.70;;;;;;;;;;5059505;28;20444;-70
2022/08/08 05:47:38;;;;;;;0.87;0.87;;;;;;;;;;5055331;28;20450;-69
2022/08/08 05:50:05;;;;;;;1.00;1.00;;;;;;;;;;5039483;28;20486;-69
2022/08/08 05:52:34;;;;;;;2.67;1.13;;;;;;;;;;5059346;28;20457;-69
2022/08/08 05:55:00;;;;;;;0.80;0.80;;;;;;;;;;5055461;28;20478;-68
2022/08/08 05:57:27;;;;;;;1.30;1.30;;;;;;;;;;5054293;28;20481;-69
2022/08/08 05:59:57;;;;;;;0.70;0.70;;;;;;;;;;5055484;28;20484;-70
2022/08/08 06:05:09;;;;;;;1.40;1.30;;;;;;;;;;5065217;28;20487;-70
2022/08/08 06:07:39;;;;;;;0.60;0.60;;;;;;;;;;5055709;28;20769;-69
2022/08/08 06:10:05;;;;;;;1.10;1.03;;;;;;;;;;5055226;28;20442;-69
2022/08/08 06:12:33;;;;;;;2.47;1.13;;;;;;;;;;5054935;28;20414;-70
2022/08/08 06:15:03;;;;;;;0.93;0.93;;;;;;;;;;5055203;28;20472;-68
2022/08/08 06:17:30;;;;;;;2.33;1.23;;;;;;;;;;5055328;28;20437;-68
2022/08/08 06:19:57;;;;;;;0.70;0.70;;;;;;;;;;5055096;28;20433;-68
2022/08/08 06:22:22;;;;;;;0.93;0.93;;;;;;;;;;5053992;28;20433;-67
2022/08/08 06:24:49;;;;;;;1.00;1.00;;;;;;;;;;5054968;28;20918;-70
2022/08/08 06:27:16;;;;;;;2.20;1.00;;;;;;;;;;5054968;28;20409;-68
2022/08/08 06:29:42;;;;;;;1.00;0.87;;;;;;;;;;5054949;28;20427;-68
2022/08/08 06:32:11;;;;;;;1.10;1.00;;;;;;;;;;5054534;28;20940;-66
2022/08/08 06:34:39;;;;;;;5.03;0.87;;;;;;;;;;5054651;28;20188;-67
2022/08/08 06:37:07;;;;;;;1.03;0.90;;;;;;;;;;5054471;28;20919;-65
2022/08/08 06:39:34;;;;;;;4.33;1.00;;;;;;;;;;5054716;28;20492;-67
2022/08/08 06:42:01;;;;;;;0.67;0.67;;;;;;;;;;5054282;28;20907;-66
2022/08/08 06:44:27;;;;;;;0.80;0.80;;;;;;;;;;5053504;28;20534;-66
2022/08/08 06:46:54;;;;;;;1.10;0.97;;;;;;;;;;5054607;28;20423;-69
2022/08/08 06:49:20;;;;;;;3.27;0.90;;;;;;;;;;5054649;28;20517;-67
2022/08/08 06:51:46;;;;;;;0.70;0.70;;;;;;;;;;5053793;28;20426;-70
2022/08/08 06:54:12;;;;;;;2.30;0.90;;;;;;;;;;5054347;28;20528;-69
2022/08/08 06:56:39;;;;;;;1.17;1.00;;;;;;;;;;5069889;28;20797;-67
2022/08/08 06:59:05;;;;;;;2.47;1.20;;;;;;;;;;5074471;28;20480;-68
2022/08/08 07:01:37;;;;;;;0.97;0.97;;;;;;;;;;5072219;28;20929;-68
2022/08/08 07:04:10;;;;;;;3.47;1.00;;;;;;;;;;5074330;28;20516;-67
2022/08/08 07:06:37;;;;;;;1.00;1.00;;;;;;;;;;5066392;28;20918;-67
2022/08/08 07:09:08;;;;;;;0.90;0.90;;;;;;;;;;5052875;28;20434;-69
2022/08/08 07:11:35;;;;;;;1.37;0.90;;;;;;;;;;5053991;28;20410;-69
2022/08/08 07:14:03;;;;;;;5.07;1.10;;;;;;;;;;5054802;28;20472;-68
2022/08/08 07:16:31;;;;;;;3.73;1.10;;;;;;;;;;5054109;28;20442;-68
2022/08/08 07:19:05;;;;;;;1.70;0.97;;;;;;;;;;5053662;28;20485;-67
2022/08/08 07:21:36;;;;;;;3.03;1.20;;;;;;;;;;5053194;28;20433;-67
2022/08/08 07:24:07;;;;;;;0.83;0.80;;;;;;;;;;5054812;28;20425;-67
2022/08/08 07:26:33;;;;;;;1.07;0.83;;;;;;;;;;5053898;28;20977;-66
2022/08/08 07:28:59;;;;;;;1.00;1.00;;;;;;;;;;5053705;28;20420;-66
2022/08/08 07:31:25;;;;;;;1.73;1.63;;;;;;;;;;5053337;28;20418;-68
2022/08/08 07:33:52;;;;;;;17.23;0.90;;;;;;;;;;5049125;28;20445;-67
2022/08/08 07:36:19;;;;;;;0.60;0.60;;;;;;;;;;5052664;28;20434;-66
2022/08/08 07:38:49;;;;;;;1.00;1.00;;;;;;;;;;5052486;28;20500;-67
2022/08/08 07:41:18;;;;;;;1.00;0.67;;;;;;;;;;5056717;28;20418;-66
2022/08/08 07:43:44;;;;;;;0.93;0.93;;;;;;;;;;5052900;28;20819;-67
2022/08/08 07:46:10;;;;;;;0.90;0.90;;;;;;;;;;5053228;28;20422;-66
2022/08/08 07:48:37;;;;;;;3.07;1.30;;;;;;;;;;5052563;28;20458;-67
2022/08/08 07:51:03;;;;;;;4.63;1.10;;;;;;;;;;5052767;28;20482;-70
2022/08/08 07:53:29;;;;;;;1.07;0.97;;;;;;;;;;5051388;28;20458;-68
2022/08/08 07:55:57;;;;;;;0.80;0.80;;;;;;;;;;5053037;28;20828;-67
2022/08/08 07:58:26;;;;;;;1.70;0.90;;;;;;;;;;5052575;28;21012;-69
2022/08/08 08:00:56;;;;;;;3.70;0.70;;;;;;;;;;5060152;28;20434;-73
2022/08/08 08:03:31;;;;;;;1.00;1.00;;;;;;;;;;5052448;28;20431;-73
2022/08/08 08:05:58;;;;;;;0.93;0.70;;;;;;;;;;5052380;28;20418;-73
2022/08/08 08:08:32;;;;;;;3.03;1.07;;;;;;;;;;5052891;28;20472;-67
2022/08/08 08:10:59;;;;;;;2.40;1.00;;;;;;;;;;5052252;28;20411;-73
2022/08/08 08:13:30;;;;;;;1.73;1.10;;;;;;;;;;5051978;28;20883;-74
2022/08/08 08:16:02;;;;;;;3.13;1.20;;;;;;;;;;5054033;28;20418;-69
2022/08/08 08:18:32;;;;;;;1.10;1.10;;;;;;;;;;5052881;28;20481;-73
2022/08/08 08:20:58;;;;;;;1.10;1.00;;;;;;;;;;5052639;28;20422;-73
2022/08/08 08:23:24;;;;;;;1.00;1.00;;;;;;;;;;5052535;28;20508;-72
2022/08/08 08:25:50;;;;;;;1.00;1.00;;;;;;;;;;5053899;28;20468;-73
2022/08/08 08:28:16;;;;;;;0.80;0.80;;;;;;;;;;5067034;28;20440;-74
2022/08/08 08:30:42;;;;;;;1.13;1.13;;;;;;;;;;5052661;28;20430;-73
2022/08/08 08:33:08;;;;;;;4.80;1.20;;;;;;;;;;5052314;28;20430;-72
2022/08/08 08:35:34;;;;;;;1.20;0.83;;;;;;;;;;5052167;28;20733;-73
2022/08/08 08:38:00;;;;;;;1.63;1.47;;;;;;;;;;5052666;28;20511;-73
2022/08/08 08:40:27;;;;;;;1.33;1.20;;;;;;;;;;5052817;28;20418;-72
2022/08/08 08:42:54;;;;;;;1.40;1.30;;;;;;;;;;5052385;28;20899;-73
2022/08/08 08:45:20;;;;;;;1.13;0.83;;;;;;;;;;5052662;28;20766;-73
2022/08/08 08:47:46;;;;;;;2.10;0.83;;;;;;;;;;5052530;28;20903;-74
2022/08/08 08:50:12;;;;;;;1.33;1.00;;;;;;;;;;5054833;28;20426;-72
2022/08/08 08:52:42;;;;;;;1.60;1.50;;;;;;;;;;5056056;28;20410;-73
2022/08/08 08:55:12;;;;;;;0.93;0.93;;;;;;;;;;5056568;28;20470;-71
2022/08/08 08:57:39;;;;;;;1.37;1.27;;;;;;;;;;5056510;28;20905;-72
2022/08/08 09:00:05;;;;;;;3.50;3.30;;;;;;;;;;5056454;28;20426;-73
2022/08/08 09:02:34;;;;;;;1.13;1.07;;;;;;;;;;5056276;28;20421;-72
2022/08/08 09:05:02;;;;;;;2.40;1.57;;;;;;;;;;5056338;28;20423;-73
2022/08/08 09:07:29;;;;;;;0.80;0.80;;;;;;;;;;5056152;28;20480;-73
2022/08/08 09:09:58;;;;;;;1.43;1.43;;;;;;;;;;5056323;28;20422;-72
2022/08/08 09:12:25;;;;;;;2.07;1.03;;;;;;;;;;5057065;28;20434;-72
2022/08/08 09:14:54;;;;;;;1.60;1.23;;;;;;;;;;5056441;28;20456;-72
2022/08/08 09:17:23;;;;;;;4.77;1.70;;;;;;;;;;5056472;28;20410;-72
2022/08/08 09:19:51;;;;;;;1.00;1.00;;;;;;;;;;5056110;28;20481;-73
2022/08/08 09:22:17;;;;;;;1.33;1.23;;;;;;;;;;5056437;28;20414;-72
2022/08/08 09:24:43;;;;;;;1.03;0.80;;;;;;;;;;5053731;28;20436;-73
2022/08/08 09:27:11;;;;;;;6.53;1.03;;;;;;;;;;5056308;28;20437;-71
2022/08/08 09:29:59;;;;;;;1.73;1.67;;;;;;;;;;5056267;28;20414;-73
2022/08/08 09:32:41;;;;;;;4.70;1.77;;;;;;;;;;5054671;28;20492;-73
2022/08/08 09:35:19;;;;;;;1.67;1.10;;;;;;;;;;5046122;28;20426;-72
2022/08/08 09:37:45;;;;;;;0.90;0.90;;;;;;;;;;5065130;28;20829;-73
2022/08/08 09:40:12;;;;;;;12.20;1.43;;;;;;;;;;5055829;28;21020;-72
2022/08/08 09:42:39;;;;;;;2.10;0.97;;;;;;;;;;5055389;28;20457;-73
2022/08/08 09:45:11;;;;;;;1.40;1.30;;;;;;;;;;5055971;28;20430;-72
2022/08/08 09:47:39;;;;;;;1.53;1.23;;;;;;;;;;5055828;28;20414;-71
2022/08/08 09:50:07;;;;;;;0.90;0.90;;;;;;;;;;5054328;28;20430;-73
2022/08/08 09:52:34;;;;;;;6.73;1.87;;;;;;;;;;5056293;28;20430;-75
2022/08/08 09:55:01;;;;;;;0.80;0.80;;;;;;;;;;5057266;28;20817;-76
2022/08/08 09:57:32;;;;;;;2.83;1.10;;;;;;;;;;5075032;28;20436;-77
2022/08/08 09:59:59;;;;;;;0.83;0.83;;;;;;;;;;5060828;28;20509;-77
2022/08/08 10:02:32;;;;;;;1.63;1.40;;;;;;;;;;5054956;28;20445;-73
2022/08/08 10:05:07;;;;;;;0.77;0.77;;;;;;;;;;5055562;28;20429;-74
2022/08/08 10:07:34;;;;;;;2.73;1.20;;;;;;;;;;5054188;28;20418;-77
2022/08/08 10:10:00;;;;;;;1.43;1.20;;;;;;;;;;5056394;28;20434;-76
2022/08/08 10:12:33;;;;;;;6.97;1.40;;;;;;;;;;5054908;28;20415;-77
2022/08/08 10:14:59;;;;;;;2.53;1.67;;;;;;;;;;5053967;28;20797;-77
2022/08/08 10:17:25;;;;;;;1.47;1.17;;;;;;;;;;5073190;28;20790;-76
2022/08/08 10:19:56;;;;;;;1.50;0.70;;;;;;;;;;5073420;28;20984;-74
2022/08/08 10:22:23;;;;;;;0.97;0.97;;;;;;;;;;5074255;28;20406;-73
2022/08/08 10:24:52;;;;;;;1.80;1.23;;;;;;;;;;5055400;28;20810;-74
2022/08/08 10:27:19;;;;;;;1.27;1.27;;;;;;;;;;5055146;28;20472;-74
2022/08/08 10:29:53;;;;;;;2.60;1.00;;;;;;;;;;5056088;28;20434;-74
2022/08/08 10:32:34;;;;;;;1.17;1.00;;;;;;;;;;5053273;28;20505;-75
2022/08/08 10:35:01;;;;;;;1.80;1.03;;;;;;;;;;5061469;28;20857;-75
2022/08/08 10:37:28;;;;;;;0.93;0.93;;;;;;;;;;5064475;28;20496;-75
2022/08/08 10:39:55;;;;;;;2.93;1.20;;;;;;;;;;5050073;28;21029;-75
2022/08/08 10:42:31;;;;;;;0.87;0.87;;;;;;;;;;5053718;28;20418;-75
2022/08/08 10:45:01;;;;;;;3.40;0.87;;;;;;;;;;5054404;28;20398;-74
2022/08/08 10:47:27;;;;;;;4.00;0.90;;;;;;;;;;5069383;28;20425;-74
2022/08/08 10:49:58;;;;;;;1.33;1.10;;;;;;;;;;5074390;28;20413;-75
2022/08/08 10:52:27;;;;;;;0.60;0.60;;;;;;;;;;5067791;28;20434;-75
2022/08/08 10:54:54;;;;;;;1.30;1.20;;;;;;;;;;5072661;28;20469;-75
2022/08/08 10:57:20;;;;;;;4.00;1.23;;;;;;;;;;5072118;28;20425;-74
2022/08/08 10:59:57;;;;;;;6.63;1.37;;;;;;;;;;5071591;28;21043;-75
2022/08/08 11:02:28;;;;;;;4.00;1.23;;;;;;;;;;5058437;28;20453;-75
2022/08/08 11:04:56;;;;;;;2.00;1.00;;;;;;;;;;5054356;28;20767;-75
2022/08/08 11:07:26;;;;;;;1.00;0.90;;;;;;;;;;5054300;28;20771;-74
2022/08/08 11:09:52;;;;;;;1.20;1.20;;;;;;;;;;5052987;28;20903;-75
2022/08/08 11:12:18;;;;;;;0.73;0.73;;;;;;;;;;5053048;28;20490;-74
2022/08/08 11:14:48;;;;;;;1.37;1.03;;;;;;;;;;5054209;28;21004;-74
2022/08/08 11:17:14;;;;;;;3.33;1.50;;;;;;;;;;5054099;28;20413;-75
2022/08/08 11:19:41;;;;;;;3.03;1.50;;;;;;;;;;5052741;28;20569;-75
2022/08/08 11:22:08;;;;;;;1.43;1.43;;;;;;;;;;5053225;28;20957;-75
2022/08/08 11:24:35;;;;;;;1.17;1.17;;;;;;;;;;5052858;28;20550;-75
2022/08/08 11:27:02;;;;;;;1.13;1.13;;;;;;;;;;5053794;28;20442;-74
2022/08/08 11:29:28;;;;;;;0.83;0.83;;;;;;;;;;5053911;28;20425;-74
2022/08/08 11:31:55;;;;;;;2.90;1.13;;;;;;;;;;5053468;28;20419;-75
2022/08/08 11:34:23;;;;;;;1.27;1.27;;;;;;;;;;5053857;28;20505;-75
2022/08/08 11:36:49;;;;;;;0.90;0.90;;;;;;;;;;5053343;28;20442;-75
2022/08/08 11:39:16;;;;;;;0.87;0.87;;;;;;;;;;5052311;28;20990;-74
2022/08/08 11:41:43;;;;;;;2.73;0.90;;;;;;;;;;5053314;28;20509;-74
2022/08/08 11:44:12;;;;;;;0.90;0.90;;;;;;;;;;5053484;28;20423;-74
2022/08/08 11:46:38;;;;;;;3.40;0.93;;;;;;;;;;5053673;28;20430;-75
2022/08/08 11:49:07;;;;;;;1.47;1.13;;;;;;;;;;5052156;28;20427;-74
2022/08/08 11:51:34;;;;;;;1.07;0.97;;;;;;;;;;5052650;28;20423;-74
2022/08/08 11:54:00;;;;;;;1.37;1.37;;;;;;;;;;5053313;28;20523;-74
2022/08/08 11:56:31;;;;;;;1.07;1.07;;;;;;;;;;5053342;28;20423;-74
2022/08/08 11:59:04;;;;;;;2.17;2.07;;;;;;;;;;5053325;28;20469;-74
2022/08/08 12:01:32;;;;;;;0.80;0.80;;;;;;;;;;5052821;28;20541;-74
2022/08/08 12:03:58;;;;;;;5.80;0.93;;;;;;;;;;5053285;28;20501;-75
2022/08/08 12:06:24;;;;;;;1.60;0.97;;;;;;;;;;5052817;28;20472;-74
2022/08/08 12:08:50;;;;;;;1.10;1.10;;;;;;;;;;5053205;28;20440;-74
2022/08/08 12:11:17;;;;;;;1.10;1.10;;;;;;;;;;5052817;28;20903;-74
2022/08/08 12:13:44;;;;;;;2.23;0.90;;;;;;;;;;5053182;28;20430;-75
2022/08/08 12:16:17;;;;;;;1.83;1.17;;;;;;;;;;5053103;28;20414;-75
2022/08/08 12:18:53;;;;;;;0.93;0.93;;;;;;;;;;5052974;28;20474;-74
2022/08/08 12:21:20;;;;;;;3.30;1.00;;;;;;;;;;5052340;28;20410;-74
2022/08/08 12:23:46;;;;;;;1.27;1.27;;;;;;;;;;5052737;28;20438;-74
2022/08/08 12:26:13;;;;;;;0.97;0.97;;;;;;;;;;5052854;28;20411;-75
2022/08/08 12:28:39;;;;;;;1.23;1.00;;;;;;;;;;5051634;28;20588;-74
2022/08/08 12:31:06;;;;;;;2.70;2.47;;;;;;;;;;5052832;28;20414;-75
2022/08/08 12:33:32;;;;;;;4.63;0.80;;;;;;;;;;5051081;28;20437;-74
2022/08/08 12:35:58;;;;;;;0.93;0.90;;;;;;;;;;5052489;28;20411;-74
2022/08/08 12:38:24;;;;;;;1.57;1.00;;;;;;;;;;5052651;28;20977;-75
2022/08/08 12:40:52;;;;;;;2.10;0.70;;;;;;;;;;5051553;28;20422;-74
2022/08/08 12:43:27;;;;;;;1.00;1.00;;;;;;;;;;5052300;28;20505;-74
2022/08/08 12:45:53;;;;;;;0.70;0.70;;;;;;;;;;5052984;28;20430;-74
2022/08/08 12:48:20;;;;;;;2.00;1.17;;;;;;;;;;5052768;28;21080;-75
2022/08/08 12:50:48;;;;;;;3.07;0.80;;;;;;;;;;5052372;28;20411;-75
2022/08/08 12:53:17;;;;;;;2.97;0.97;;;;;;;;;;5052050;28;20406;-75
2022/08/08 12:56:03;;;;;;;0.80;0.80;;;;;;;;;;5052588;28;20436;-75
2022/08/08 12:58:43;;;;;;;1.17;1.10;;;;;;;;;;5052486;28;20473;-74
2022/08/08 13:01:09;;;;;;;1.90;1.23;;;;;;;;;;5052650;28;20814;-74
2022/08/08 13:03:36;;;;;;;2.40;1.17;;;;;;;;;;5050925;28;20430;-74
2022/08/08 13:06:09;;;;;;;3.70;1.10;;;;;;;;;;5052174;28;20419;-75
2022/08/08 13:08:42;;;;;;;1.53;1.53;;;;;;;;;;5052424;28;20450;-75
2022/08/08 13:11:20;;;;;;;1.43;0.90;;;;;;;;;;5052645;28;20406;-74
2022/08/08 13:14:01;;;;;;;0.83;0.80;;;;;;;;;;5052407;28;20422;-74
2022/08/08 13:16:28;;;;;;;1.93;1.83;;;;;;;;;;5052625;28;20430;-74
2022/08/08 13:18:58;;;;;;;1.17;1.17;;;;;;;;;;5052266;28;20478;-75
2022/08/08 13:21:24;;;;;;;3.30;1.40;;;;;;;;;;5051676;28;20465;-74
2022/08/08 13:23:50;;;;;;;1.43;1.33;;;;;;;;;;5052228;28;20911;-74
2022/08/08 13:26:16;;;;;;;2.57;1.20;;;;;;;;;;5052440;28;20446;-74
2022/08/08 13:28:42;;;;;;;2.10;0.90;;;;;;;;;;5052384;28;20938;-77
2022/08/08 13:31:11;;;;;;;2.10;0.90;;;;;;;;;;5052327;28;20418;-75
2022/08/08 13:33:39;;;;;;;0.93;0.93;;;;;;;;;;5051912;28;20483;-74
2022/08/08 13:36:05;;;;;;;3.60;1.13;;;;;;;;;;5053594;28;20430;-74
2022/08/08 13:38:31;;;;;;;4.87;1.00;;;;;;;;;;5055925;28;20615;-74
2022/08/08 13:40:59;;;;;;;4.33;2.00;;;;;;;;;;5056017;28;20921;-74
2022/08/08 13:43:25;;;;;;;3.17;1.30;;;;;;;;;;5055501;28;20421;-74
2022/08/08 13:45:51;;;;;;;1.13;1.13;;;;;;;;;;5055895;28;20421;-74
2022/08/08 13:48:17;;;;;;;1.00;1.00;;;;;;;;;;5055839;28;20418;-76
2022/08/08 13:50:47;;;;;;;2.40;1.03;;;;;;;;;;5055051;28;20494;-73
2022/08/08 13:53:24;;;;;;;0.90;0.90;;;;;;;;;;5055185;28;20423;-75
2022/08/08 13:55:57;;;;;;;1.47;1.10;;;;;;;;;;5049576;28;20491;-73
2022/08/08 13:58:23;;;;;;;3.47;1.03;;;;;;;;;;5054564;28;20497;-73
2022/08/08 14:00:49;;;;;;;1.37;0.97;;;;;;;;;;5054059;28;20481;-74
2022/08/08 14:03:24;;;;;;;1.37;1.30;;;;;;;;;;5052862;28;20180;-72
2022/08/08 14:05:50;;;;;;;0.90;0.90;;;;;;;;;;5054685;28;20422;-74
2022/08/08 14:08:16;;;;;;;6.57;2.37;;;;;;;;;;5054852;28;20510;-75
2022/08/08 14:10:42;;;;;;;9.83;1.30;;;;;;;;;;5055730;28;20483;-74
2022/08/08 14:13:11;;;;;;;1.30;1.30;;;;;;;;;;5075062;28;20502;-75
2022/08/08 14:15:39;;;;;;;4.73;1.07;;;;;;;;;;5074072;28;20413;-75
2022/08/08 14:18:06;;;;;;;3.43;1.10;;;;;;;;;;5035310;28;20473;-76
2022/08/08 14:20:36;;;;;;;0.83;0.83;;;;;;;;;;5043094;28;20511;-74
2022/08/08 14:23:09;;;;;;;1.20;1.20;;;;;;;;;;5074847;28;20413;-74
2022/08/08 14:25:44;;;;;;;2.17;1.10;;;;;;;;;;5075240;28;20421;-74
2022/08/08 14:28:10;;;;;;;2.50;1.17;;;;;;;;;;5075084;28;20424;-74
2022/08/08 14:30:36;;;;;;;1.90;0.80;;;;;;;;;;5073961;28;20418;-74
2022/08/08 14:33:03;;;;;;;4.00;0.60;;;;;;;;;;5072873;28;20421;-74
2022/08/08 14:35:29;;;;;;;1.00;1.00;;;;;;;;;;5074663;28;20471;-74
2022/08/08 14:38:00;;;;;;;1.03;1.03;;;;;;;;;;5074738;28;20409;-74
2022/08/08 14:40:27;;;;;;;1.37;1.37;;;;;;;;;;5073268;28;20438;-77
2022/08/08 14:42:54;;;;;;;1.43;1.40;;;;;;;;;;5074510;28;20410;-77
2022/08/08 14:45:22;;;;;;;4.17;1.17;;;;;;;;;;5074419;28;20465;-77
2022/08/08 14:47:56;;;;;;;5.43;1.30;;;;;;;;;;5073811;28;20811;-79
2022/08/08 14:50:26;;;;;;;4.47;1.40;;;;;;;;;;5072577;28;20444;-77
2022/08/08 14:52:56;;;;;;;2.30;1.27;;;;;;;;;;5074319;28;20410;-77
2022/08/08 14:55:23;;;;;;;1.10;1.10;;;;;;;;;;5074402;28;20476;-77
2022/08/08 14:57:50;;;;;;;2.50;1.53;;;;;;;;;;5073598;28;20422;-80
2022/08/08 15:00:16;;;;;;;3.17;2.03;;;;;;;;;;5072715;28;20438;-78
2022/08/08 15:02:44;;;;;;;1.60;1.10;;;;;;;;;;5074218;28;20413;-80